Lawrenceburg, Indiana
Current Conditions -  °F | °C
As of 9:52 PM on Monday 22 Dec 2014 (Local Time) from KCVG Reporting Station
Scattered Clouds Scattered Clouds  
Wind Chill: 41°   Ceiling: Unl
Heat Index: 47°   Visibility: 10mi
Dew Point: 36°   Wind: 13mph
Humidity: 66%   Direction: 130°SE
Pressure: 29.72"   Gusts: NA
Location:  39.09°N, 84.85°W
Report Text: KCVG 230252Z 13011KT 10SM SCT050 SCT200 08/02 A2972 RMK AO2 SLP064 T00830022 58021
Loading
Personal Weather Stations






























Interactive Weather Map New forecast layout! Learn more

10-Day Weather Forecast

Advertisements
Track Severe Weather on mobile